createdAt,value
2023-03-01T00:00:20.708Z,13.13
2023-03-01T00:02:47.962Z,13.10
2023-03-01T00:05:15.255Z,14.15
2023-03-01T00:07:42.533Z,13.65
2023-03-01T00:10:10.164Z,14.80
2023-03-01T00:12:37.586Z,14.75
2023-03-01T00:15:05.789Z,14.02
2023-03-01T00:17:33.017Z,13.73
2023-03-01T00:20:00.212Z,13.82
2023-03-01T00:22:29.437Z,14.88
2023-03-01T00:24:56.671Z,15.13
2023-03-01T00:27:23.904Z,14.57
2023-03-01T00:29:51.214Z,16.73
2023-03-01T00:32:18.562Z,13.68
2023-03-01T00:34:55.064Z,14.57
2023-03-01T00:37:22.836Z,15.10
2023-03-01T00:39:50.134Z,15.00
2023-03-01T00:42:18.056Z,15.40
2023-03-01T00:44:45.375Z,17.23
2023-03-01T00:47:12.676Z,14.95
2023-03-01T00:49:39.942Z,15.65
2023-03-01T00:52:07.298Z,16.83
2023-03-01T00:54:34.573Z,15.82
2023-03-01T00:57:01.841Z,16.35
2023-03-01T00:59:29.068Z,16.60
2023-03-01T01:01:56.423Z,17.27
2023-03-01T01:04:23.689Z,15.50
2023-03-01T01:06:50.994Z,17.05
2023-03-01T01:09:19.427Z,15.50
2023-03-01T01:11:50.531Z,15.80
2023-03-01T01:14:18.358Z,16.50
2023-03-01T01:16:45.648Z,15.27
2023-03-01T01:19:13.289Z,16.60
2023-03-01T01:21:40.858Z,14.85
2023-03-01T01:24:08.347Z,15.50
2023-03-01T01:26:35.830Z,16.13
2023-03-01T01:29:04.356Z,16.80
2023-03-01T01:31:32.416Z,16.40
2023-03-01T01:34:00.544Z,19.02
2023-03-01T01:36:28.213Z,15.60
2023-03-01T01:38:55.787Z,15.38
2023-03-01T01:41:23.070Z,17.40
2023-03-01T01:43:51.541Z,17.63
2023-03-01T01:46:33.453Z,12.57
2023-03-01T01:49:06.999Z,16.15
2023-03-01T01:51:41.487Z,16.88
2023-03-01T01:54:15.880Z,16.92
2023-03-01T01:56:45.998Z,17.77
2023-03-01T01:59:13.814Z,15.95
2023-03-01T02:01:41.115Z,14.40
2023-03-01T02:04:08.424Z,18.00
2023-03-01T02:06:38.741Z,17.92
2023-03-01T02:09:12.364Z,16.23
2023-03-01T02:11:39.605Z,16.48
2023-03-01T02:14:07.041Z,15.65
2023-03-01T02:16:34.775Z,16.17
2023-03-01T02:19:02.697Z,16.55
2023-03-01T02:21:39.172Z,17.05
2023-03-01T02:24:12.330Z,17.15
2023-03-01T02:26:44.140Z,15.95
2023-03-01T02:29:11.469Z,17.88
2023-03-01T02:31:44.818Z,17.02
2023-03-01T02:34:14.995Z,17.02
2023-03-01T02:36:54.097Z,16.95
2023-03-01T02:39:23.739Z,16.88
2023-03-01T02:41:53.059Z,19.55
2023-03-01T02:46:49.089Z,18.33
2023-03-01T02:49:22.948Z,18.30
2023-03-01T02:51:56.506Z,19.08
2023-03-01T02:54:30.179Z,20.17
2023-03-01T02:56:57.869Z,18.13
2023-03-01T02:59:28.728Z,15.75
2023-03-01T03:01:56.469Z,20.05
2023-03-01T03:04:23.859Z,20.45
2023-03-01T03:06:52.348Z,18.77
2023-03-01T03:09:19.946Z,18.17
2023-03-01T03:11:47.254Z,18.00
2023-03-01T03:14:15.791Z,19.58
2023-03-01T03:16:47.583Z,18.23
2023-03-01T03:19:14.910Z,18.55
2023-03-01T03:21:42.119Z,18.45
2023-03-01T03:24:09.341Z,19.35
2023-03-01T03:26:36.633Z,18.10
2023-03-01T03:29:04.178Z,19.25
2023-03-01T03:31:31.427Z,21.17
2023-03-01T03:33:59.938Z,20.58
2023-03-01T03:36:27.240Z,20.75
2023-03-01T03:38:54.582Z,21.65
2023-03-01T03:41:21.891Z,21.23
2023-03-01T03:43:49.994Z,19.42
2023-03-01T03:46:18.074Z,20.92
2023-03-01T03:48:46.542Z,20.02
2023-03-01T03:51:15.063Z,14.63
2023-03-01T03:53:42.748Z,18.33
2023-03-01T03:56:09.998Z,19.15
2023-03-01T03:58:37.540Z,17.45
2023-03-01T04:01:05.232Z,18.15
2023-03-01T04:03:33.202Z,16.40
2023-03-01T04:06:01.636Z,18.63
2023-03-01T04:08:29.390Z,18.73
2023-03-01T04:11:22.903Z,16.40
2023-03-01T04:13:50.348Z,15.43
2023-03-01T04:16:18.672Z,17.15
2023-03-01T04:18:45.945Z,13.53
2023-03-01T04:21:13.359Z,16.75
2023-03-01T04:23:41.913Z,15.82
2023-03-01T04:26:09.629Z,17.05
2023-03-01T04:28:41.417Z,16.15
2023-03-01T04:31:18.272Z,16.48
2023-03-01T04:33:50.121Z,17.00
2023-03-01T04:36:18.635Z,16.65
2023-03-01T04:38:48.757Z,15.73
2023-03-01T04:41:17.448Z,16.55
2023-03-01T04:43:44.822Z,15.27
2023-03-01T04:46:15.465Z,15.93
2023-03-01T04:48:43.923Z,16.98
2023-03-01T04:51:14.284Z,16.90
2023-03-01T04:53:41.997Z,16.73
2023-03-01T04:56:09.270Z,16.02
2023-03-01T04:58:36.528Z,16.08
2023-03-01T05:01:16.389Z,16.77
2023-03-01T05:03:48.359Z,17.77
2023-03-01T05:06:16.131Z,18.70
2023-03-01T05:08:43.905Z,18.17
2023-03-01T05:11:11.345Z,16.30
2023-03-01T05:13:39.390Z,16.67
2023-03-01T05:16:07.498Z,16.52
2023-03-01T05:18:35.850Z,16.15
2023-03-01T05:21:07.669Z,16.60
2023-03-01T05:23:35.406Z,15.52
2023-03-01T05:26:05.361Z,15.07
2023-03-01T05:28:33.679Z,15.13
2023-03-01T05:31:01.274Z,16.77
2023-03-01T05:33:29.020Z,15.43
2023-03-01T05:35:56.409Z,15.25
2023-03-01T05:38:23.779Z,15.77
2023-03-01T05:40:51.191Z,14.65
2023-03-01T05:43:19.138Z,16.67
2023-03-01T05:45:46.635Z,15.90
2023-03-01T05:48:14.406Z,15.30
2023-03-01T05:50:42.730Z,15.43
2023-03-01T05:53:17.774Z,14.88
2023-03-01T05:55:47.105Z,14.85
2023-03-01T06:00:42.747Z,15.07
2023-03-01T06:03:11.512Z,14.90
2023-03-01T06:05:39.110Z,10.90
2023-03-01T06:08:06.603Z,15.45
2023-03-01T06:10:33.912Z,14.98
2023-03-01T06:13:01.128Z,16.13
2023-03-01T06:15:28.585Z,15.63
2023-03-01T06:17:59.979Z,14.95
2023-03-01T06:20:28.329Z,15.65
2023-03-01T06:22:55.705Z,15.25
2023-03-01T06:25:24.283Z,16.15
2023-03-01T06:27:53.256Z,15.63
2023-03-01T06:30:21.200Z,18.13
2023-03-01T06:32:48.883Z,16.63
2023-03-01T06:35:18.784Z,16.13
2023-03-01T06:37:46.643Z,18.23
2023-03-01T06:40:14.842Z,19.98
2023-03-01T06:42:43.280Z,19.33
2023-03-01T06:45:10.873Z,21.23
2023-03-01T06:47:38.149Z,20.17
2023-03-01T06:50:05.671Z,19.65
2023-03-01T06:52:32.987Z,22.45
2023-03-01T06:55:00.738Z,24.00
2023-03-01T06:57:28.130Z,22.30
2023-03-01T06:59:55.549Z,24.05
2023-03-01T07:02:23.036Z,22.48
2023-03-01T07:04:53.573Z,24.58
2023-03-01T07:07:21.023Z,23.88
2023-03-01T07:09:48.703Z,24.02
2023-03-01T07:12:16.069Z,25.83
2023-03-01T07:14:43.375Z,25.83
2023-03-01T07:17:10.686Z,27.38
2023-03-01T07:19:37.999Z,31.08
2023-03-01T07:22:08.636Z,27.27
2023-03-01T07:41:02.880Z,28.67
2023-03-01T07:53:11.194Z,35.05
2023-03-01T07:55:38.908Z,36.35
2023-03-01T07:58:06.422Z,36.17
2023-03-01T08:00:33.660Z,32.40
2023-03-01T08:03:01.986Z,35.00
2023-03-01T08:05:30.197Z,27.30
2023-03-01T08:07:57.421Z,34.30
2023-03-01T08:10:24.682Z,32.78
2023-03-01T08:12:53.790Z,29.52
2023-03-01T08:15:21.067Z,31.48
2023-03-01T08:17:51.087Z,28.40
2023-03-01T08:20:20.010Z,26.02
2023-03-01T08:22:47.330Z,25.45
2023-03-01T08:25:14.591Z,22.83
2023-03-01T08:27:41.846Z,22.95
2023-03-01T08:30:09.709Z,20.00
2023-03-01T08:32:38.230Z,20.80
2023-03-01T08:35:05.699Z,19.17
2023-03-01T08:37:34.182Z,19.90
2023-03-01T08:40:02.030Z,20.57
2023-03-01T08:42:29.297Z,22.92
2023-03-01T08:44:57.747Z,22.15
2023-03-01T08:47:25.064Z,21.13
2023-03-01T08:49:52.704Z,21.00
2023-03-01T08:52:20.833Z,20.67
2023-03-01T08:54:50.932Z,22.13
2023-03-01T08:57:18.151Z,21.33
2023-03-01T08:59:45.603Z,22.58
2023-03-01T09:02:17.537Z,22.10
2023-03-01T09:04:45.402Z,23.00
2023-03-01T09:07:12.792Z,22.55
2023-03-01T09:09:40.139Z,22.02
2023-03-01T09:12:07.466Z,22.20
2023-03-01T09:14:35.127Z,20.38
2023-03-01T09:17:04.041Z,17.65
2023-03-01T09:19:31.387Z,17.42
2023-03-01T09:21:59.383Z,15.85
2023-03-01T09:24:26.946Z,18.17
2023-03-01T09:26:57.792Z,18.52
2023-03-01T09:29:25.509Z,16.88
2023-03-01T09:31:55.967Z,15.60
2023-03-01T09:34:24.484Z,14.15
2023-03-01T09:36:52.407Z,15.10
2023-03-01T09:39:19.891Z,15.98
2023-03-01T09:41:47.317Z,13.63
2023-03-01T09:44:23.060Z,12.63
2023-03-01T09:46:50.665Z,11.55
2023-03-01T09:49:22.762Z,10.75
2023-03-01T09:51:56.536Z,11.00
2023-03-01T09:54:23.937Z,11.00
2023-03-01T09:57:08.008Z,9.77
2023-03-01T09:59:44.038Z,10.02
2023-03-01T10:02:35.043Z,9.45
2023-03-01T10:05:16.138Z,9.88
2023-03-01T10:07:43.511Z,9.32
2023-03-01T10:10:17.700Z,9.00
2023-03-01T10:12:46.641Z,8.48
2023-03-01T10:15:20.910Z,8.38
2023-03-01T10:18:06.719Z,8.02
2023-03-01T10:20:52.381Z,9.35
2023-03-01T10:23:19.625Z,12.15
2023-03-01T10:25:56.131Z,10.65
2023-03-01T10:28:38.331Z,12.18
2023-03-01T10:31:05.827Z,13.07
2023-03-01T10:33:34.585Z,16.25
2023-03-01T10:36:01.878Z,14.48
2023-03-01T10:38:31.733Z,16.52
2023-03-01T10:41:07.946Z,17.10
2023-03-01T10:43:44.357Z,13.75
2023-03-01T10:46:31.936Z,14.77
2023-03-01T10:49:08.063Z,15.30
2023-03-01T10:51:35.446Z,17.33
2023-03-01T10:54:03.648Z,14.30
2023-03-01T10:56:36.606Z,15.20
2023-03-01T10:59:07.129Z,15.23
2023-03-01T11:01:38.318Z,14.50
2023-03-01T11:04:08.756Z,13.93
2023-03-01T11:06:36.669Z,14.45
2023-03-01T11:09:17.302Z,13.90
2023-03-01T11:11:44.658Z,15.50
2023-03-01T11:14:27.603Z,15.45
2023-03-01T11:17:16.954Z,13.75
2023-03-01T11:19:54.250Z,12.45
2023-03-01T11:22:28.812Z,14.15
2023-03-01T11:25:08.791Z,12.50
2023-03-01T11:27:40.260Z,14.63
2023-03-01T11:30:14.716Z,19.73
2023-03-01T11:32:45.277Z,15.02
2023-03-01T11:35:21.016Z,17.33
2023-03-01T11:38:02.079Z,15.75
2023-03-01T11:40:31.945Z,19.73
2023-03-01T11:43:04.686Z,42.28
2023-03-01T11:45:39.843Z,19.05
2023-03-01T11:48:07.079Z,12.60
2023-03-01T11:50:47.972Z,16.95
2023-03-01T11:53:33.988Z,12.30
2023-03-01T11:56:01.307Z,12.63
2023-03-01T11:58:28.581Z,10.32
2023-03-01T12:01:02.739Z,12.48
2023-03-01T12:03:36.043Z,14.63
2023-03-01T12:06:09.255Z,12.30
2023-03-01T12:08:55.273Z,9.77
2023-03-01T12:11:25.594Z,9.63
2023-03-01T12:13:52.815Z,12.40
2023-03-01T12:16:38.551Z,13.23
2023-03-01T12:19:17.755Z,9.65
2023-03-01T12:22:01.152Z,9.48
2023-03-01T12:24:28.440Z,11.52
2023-03-01T12:27:01.868Z,10.75
2023-03-01T12:29:41.464Z,10.77
2023-03-01T12:32:19.132Z,11.05
2023-03-01T12:34:46.868Z,13.25
2023-03-01T12:37:19.866Z,7.78
2023-03-01T12:40:01.045Z,10.38
2023-03-01T12:42:33.616Z,12.48
2023-03-01T12:45:16.212Z,10.80
2023-03-01T12:47:49.487Z,9.65
2023-03-01T12:50:27.214Z,6.32
2023-03-01T12:52:58.366Z,6.60
2023-03-01T12:55:34.833Z,8.70
2023-03-01T12:58:14.384Z,7.65
2023-03-01T13:00:47.415Z,8.77
2023-03-01T13:03:20.856Z,8.82
2023-03-01T13:05:48.071Z,9.10
2023-03-01T13:08:25.360Z,7.60
2023-03-01T13:10:55.556Z,7.88
2023-03-01T13:13:25.943Z,8.70
2023-03-01T13:15:53.965Z,8.13
2023-03-01T13:18:23.026Z,10.82
2023-03-01T13:20:51.837Z,11.00
2023-03-01T13:23:22.475Z,11.20
2023-03-01T13:25:58.971Z,10.30
2023-03-01T13:28:58.875Z,11.98
2023-03-01T13:31:27.292Z,7.97
2023-03-01T13:33:55.707Z,6.35
2023-03-01T13:36:29.771Z,6.47
2023-03-01T13:39:00.182Z,5.63
2023-03-01T13:41:42.801Z,5.22
2023-03-01T13:44:28.164Z,5.32
2023-03-01T13:46:58.174Z,7.28
2023-03-01T13:49:33.413Z,6.03
2023-03-01T13:52:23.062Z,5.75
2023-03-01T13:54:50.359Z,5.28
2023-03-01T13:57:23.249Z,6.25
2023-03-01T13:59:50.587Z,5.65
2023-03-01T14:02:18.217Z,5.70
2023-03-01T14:04:45.479Z,5.75
2023-03-01T14:07:14.366Z,6.35
2023-03-01T14:09:43.639Z,5.78
2023-03-01T14:14:42.413Z,5.28
2023-03-01T14:17:25.643Z,6.10
2023-03-01T14:19:57.704Z,5.50
2023-03-01T14:22:28.233Z,5.70
2023-03-01T14:24:56.633Z,5.70
2023-03-01T14:27:25.488Z,5.50
2023-03-01T14:30:03.310Z,5.15
2023-03-01T14:32:31.931Z,5.60
2023-03-01T14:34:59.989Z,5.97
2023-03-01T14:37:29.284Z,5.28
2023-03-01T14:42:24.494Z,5.18
2023-03-01T14:44:52.979Z,5.75
2023-03-01T14:47:30.352Z,4.82
2023-03-01T14:50:09.033Z,5.72
2023-03-01T14:52:38.115Z,5.70
2023-03-01T14:55:15.282Z,5.78
2023-03-01T14:57:45.392Z,5.47
2023-03-01T15:00:25.780Z,6.18
2023-03-01T15:02:54.004Z,5.78
2023-03-01T15:05:40.961Z,5.30
2023-03-01T15:08:08.666Z,5.63
2023-03-01T15:10:37.782Z,5.60
2023-03-01T15:13:12.332Z,5.13
2023-03-01T15:15:41.463Z,5.95
2023-03-01T15:18:23.221Z,6.10
2023-03-01T15:20:50.973Z,6.13
2023-03-01T15:23:24.142Z,6.60
2023-03-01T15:25:57.492Z,6.55
2023-03-01T15:28:51.074Z,6.38
2023-03-01T15:31:21.378Z,21.83
2023-03-01T15:33:49.095Z,6.28
2023-03-01T15:36:34.137Z,5.90
2023-03-01T15:39:02.019Z,6.05
2023-03-01T15:41:34.143Z,6.88
2023-03-01T15:44:02.153Z,6.07
2023-03-01T15:46:38.608Z,6.03
2023-03-01T15:49:27.433Z,5.88
2023-03-01T15:51:56.319Z,4.78
2023-03-01T15:54:25.388Z,6.18
2023-03-01T15:56:52.614Z,6.25
2023-03-01T15:59:20.124Z,5.63
2023-03-01T16:01:49.432Z,6.30
2023-03-01T16:06:54.956Z,5.38
2023-03-01T16:09:25.733Z,6.18
2023-03-01T16:11:54.143Z,5.40
2023-03-01T16:14:21.766Z,6.07
2023-03-01T16:16:50.210Z,5.55
2023-03-01T16:19:17.797Z,5.85
2023-03-01T16:21:47.571Z,7.00
2023-03-01T16:24:15.169Z,5.18
2023-03-01T16:26:43.278Z,6.47
2023-03-01T16:29:10.876Z,6.53
2023-03-01T16:31:38.212Z,5.90
2023-03-01T16:34:05.611Z,5.38
2023-03-01T16:36:32.969Z,6.55
2023-03-01T16:39:01.626Z,6.53
2023-03-01T16:41:29.470Z,6.55
2023-03-01T16:43:57.086Z,6.15
2023-03-01T16:46:28.563Z,6.00
2023-03-01T16:48:56.070Z,6.10
2023-03-01T16:51:24.271Z,6.70
2023-03-01T16:53:51.939Z,6.40
2023-03-01T16:56:20.294Z,6.57
2023-03-01T16:58:47.718Z,6.05
2023-03-01T17:01:16.832Z,5.75
2023-03-01T17:03:45.050Z,6.47
2023-03-01T17:06:13.905Z,6.30
2023-03-01T17:08:41.434Z,6.03
2023-03-01T17:11:10.104Z,5.68
2023-03-01T17:13:38.195Z,6.47
2023-03-01T17:16:06.439Z,6.60
2023-03-01T17:18:33.720Z,5.88
2023-03-01T17:21:01.326Z,6.88
2023-03-01T17:23:30.117Z,6.40
2023-03-01T17:25:57.716Z,7.25
2023-03-01T17:28:25.986Z,6.20
2023-03-01T17:30:53.590Z,7.78
2023-03-01T17:33:20.986Z,7.18
2023-03-01T17:35:48.533Z,7.43
2023-03-01T17:38:15.962Z,7.30
2023-03-01T17:40:47.697Z,8.15
2023-03-01T17:43:16.397Z,7.72
2023-03-01T17:45:47.691Z,8.50
2023-03-01T17:48:17.126Z,8.68
2023-03-01T17:53:11.878Z,7.90
2023-03-01T17:55:42.651Z,8.23
2023-03-01T17:58:10.742Z,7.18
2023-03-01T18:00:38.186Z,8.18
2023-03-01T18:03:05.594Z,8.23
2023-03-01T18:05:37.915Z,9.45
2023-03-01T18:08:05.312Z,9.02
2023-03-01T18:10:33.437Z,10.65
2023-03-01T18:13:00.967Z,9.45
2023-03-01T18:15:28.911Z,9.35
2023-03-01T18:17:56.243Z,8.60
2023-03-01T18:20:23.585Z,8.88
2023-03-01T18:22:52.710Z,9.57
2023-03-01T18:25:20.545Z,9.10
2023-03-01T18:27:47.873Z,9.15
2023-03-01T18:30:15.471Z,8.75
2023-03-01T18:32:45.005Z,8.48
2023-03-01T18:35:12.243Z,10.57
2023-03-01T18:37:39.671Z,9.23
2023-03-01T18:40:08.069Z,9.55
2023-03-01T18:42:35.289Z,7.30
2023-03-01T18:45:02.641Z,11.23
2023-03-01T18:47:29.989Z,10.68
2023-03-01T18:49:57.242Z,9.13
2023-03-01T18:52:24.647Z,10.65
2023-03-01T18:54:51.920Z,10.27
2023-03-01T18:57:19.225Z,11.40
2023-03-01T18:59:46.479Z,10.65
2023-03-01T19:02:15.566Z,11.52
2023-03-01T19:04:43.130Z,10.10
2023-03-01T19:07:10.502Z,11.02
2023-03-01T19:09:37.915Z,10.27
2023-03-01T19:12:06.242Z,10.32
2023-03-01T19:14:33.746Z,11.30
2023-03-01T19:17:01.001Z,9.73
2023-03-01T19:19:28.277Z,10.75
2023-03-01T19:22:05.139Z,11.02
2023-03-01T19:24:33.452Z,10.15
2023-03-01T19:27:00.721Z,11.50
2023-03-01T19:29:27.998Z,10.30
2023-03-01T19:31:55.418Z,10.45
2023-03-01T19:34:24.445Z,11.75
2023-03-01T19:36:51.674Z,11.35
2023-03-01T19:39:18.918Z,11.63
2023-03-01T19:41:48.765Z,11.20
2023-03-01T19:44:17.168Z,11.18
2023-03-01T19:46:44.635Z,12.95
2023-03-01T19:49:11.892Z,13.68
2023-03-01T19:51:39.454Z,12.55
2023-03-01T19:54:07.185Z,11.93
2023-03-01T19:56:35.007Z,11.10
2023-03-01T19:59:04.407Z,12.45
2023-03-01T20:04:00.880Z,13.57
2023-03-01T20:06:30.123Z,12.05
2023-03-01T20:08:58.668Z,13.02
2023-03-01T20:11:26.126Z,13.18
2023-03-01T20:13:53.430Z,12.85
2023-03-01T20:16:22.921Z,11.88
2023-03-01T20:18:50.564Z,13.07
2023-03-01T20:21:24.316Z,11.73
2023-03-01T20:23:52.385Z,12.70
2023-03-01T20:26:20.571Z,12.95
2023-03-01T20:28:48.956Z,13.68
2023-03-01T20:31:17.489Z,13.03
2023-03-01T20:33:44.936Z,8.90
2023-03-01T20:36:12.214Z,12.68
2023-03-01T20:38:39.765Z,13.82
2023-03-01T20:41:11.050Z,12.68
2023-03-01T20:43:39.489Z,12.15
2023-03-01T20:46:07.401Z,11.43
2023-03-01T20:48:34.834Z,14.18
2023-03-01T20:51:05.725Z,12.95
2023-03-01T20:53:33.088Z,13.35
2023-03-01T20:56:04.166Z,13.65
2023-03-01T20:58:35.663Z,14.23
2023-03-01T21:01:03.951Z,14.48
2023-03-01T21:03:31.729Z,13.65
2023-03-01T21:05:59.674Z,12.63
2023-03-01T21:08:27.026Z,14.02
2023-03-01T21:10:55.094Z,12.90
2023-03-01T21:13:23.412Z,12.93
2023-03-01T21:16:03.274Z,12.90
2023-03-01T21:18:30.857Z,14.45
2023-03-01T21:21:01.384Z,13.48
2023-03-01T21:23:32.273Z,13.93
2023-03-01T21:26:05.555Z,13.65
2023-03-01T21:28:33.462Z,14.27
2023-03-01T21:31:09.689Z,13.95
2023-03-01T21:33:37.351Z,13.93
2023-03-01T21:36:08.709Z,14.15
2023-03-01T21:38:40.252Z,15.38
2023-03-01T21:41:12.155Z,14.18
2023-03-01T21:43:39.879Z,16.60
2023-03-01T21:46:10.605Z,14.95
2023-03-01T21:48:39.952Z,14.10
2023-03-01T21:51:08.532Z,14.50
2023-03-01T21:53:36.362Z,13.82
2023-03-01T21:56:03.654Z,14.70
2023-03-01T21:58:31.581Z,14.00
2023-03-01T22:01:06.241Z,15.68
2023-03-01T22:03:33.621Z,14.32
2023-03-01T22:06:02.051Z,15.00
2023-03-01T22:08:29.609Z,14.50
2023-03-01T22:10:56.957Z,15.20
2023-03-01T22:13:24.226Z,14.27
2023-03-01T22:15:51.515Z,13.60
2023-03-01T22:18:18.873Z,14.23
2023-03-01T22:20:46.113Z,14.07
2023-03-01T22:23:13.451Z,15.05
2023-03-01T22:25:41.866Z,17.05
2023-03-01T22:28:09.295Z,15.40
2023-03-01T22:30:36.663Z,15.45
2023-03-01T22:33:04.603Z,15.30
2023-03-01T22:35:32.008Z,16.25
2023-03-01T22:37:59.347Z,16.23
2023-03-01T22:40:26.753Z,14.68
2023-03-01T22:42:54.452Z,15.13
2023-03-01T22:45:21.742Z,15.73
2023-03-01T22:47:49.020Z,16.23
2023-03-01T22:50:16.606Z,16.85
2023-03-01T22:52:43.932Z,17.70
2023-03-01T22:55:11.367Z,19.60
2023-03-01T22:57:38.633Z,20.55
2023-03-01T23:00:07.769Z,19.50
2023-03-01T23:02:35.112Z,21.83
2023-03-01T23:05:02.560Z,22.25
2023-03-01T23:07:29.916Z,24.58
2023-03-01T23:10:02.114Z,24.48
2023-03-01T23:12:30.073Z,25.08
2023-03-01T23:14:57.414Z,28.67
2023-03-01T23:17:25.252Z,27.88
2023-03-01T23:19:52.475Z,26.58
2023-03-01T23:22:19.833Z,30.33
2023-03-01T23:24:47.687Z,26.90
2023-03-01T23:27:16.860Z,28.30
2023-03-01T23:29:45.103Z,28.77
2023-03-01T23:32:12.592Z,27.73
2023-03-01T23:34:43.654Z,29.17
2023-03-01T23:37:11.380Z,26.52
2023-03-01T23:39:38.605Z,28.73
2023-03-01T23:42:05.980Z,28.98
2023-03-01T23:44:33.307Z,29.80
2023-03-01T23:47:00.626Z,28.77
2023-03-01T23:49:28.738Z,29.17
2023-03-01T23:51:55.943Z,29.83
2023-03-01T23:54:24.134Z,28.00
2023-03-01T23:56:51.434Z,28.75
2023-03-01T23:59:20.246Z,29.90
